Time;durP1;ratioP1;P1;durP2;ratioP2;P2;SDS_P1;SDS_P2;PMS_P1;PMS_P2;Temp;Humidity;BMP_temperature;BMP_pressure;BME280_temperature;BME280_humidity;BME280_pressure;Samples;Min_cycle;Max_cycle;Signal;HPM_P1;HPM_P2
2022/01/16 00:01:34;;;;;;;;;;;;;;;0.52;68.85;99768.10;1762615;80;21498;-55
2022/01/16 00:06:17;;;;;;;5.05;3.02;;;;;;;0.52;68.34;99750.43;1758065;80;21522;-56
2022/01/16 00:08:44;;;;;;;4.12;2.17;;;;;;;0.53;67.96;99754.75;1756626;80;21436;-55
2022/01/16 00:11:12;;;;;;;4.58;2.45;;;;;;;0.57;67.34;99755.18;1764190;80;21435;-56
2022/01/16 00:13:39;;;;;;;5.67;2.98;;;;;;;0.56;66.74;99757.32;1764205;80;21439;-56
2022/01/16 00:16:06;;;;;;;4.40;2.60;;;;;;;0.53;67.02;99759.93;1766979;79;21554;-55
2022/01/16 00:18:48;;;;;;;4.90;2.77;;;;;;;0.54;66.90;99765.52;1725179;80;21569;-56
2022/01/16 00:21:02;;;;;;;3.85;2.10;;;;;;;0.52;67.11;99764.66;1743950;80;21545;-55
2022/01/16 00:23:29;;;;;;;3.00;1.87;;;;;;;0.55;66.73;99751.73;1764007;80;22050;-56
2022/01/16 00:25:56;;;;;;;4.37;1.77;;;;;;;0.55;66.51;99767.26;1759436;80;21467;-56
2022/01/16 00:28:24;;;;;;;2.58;1.65;;;;;;;0.56;66.31;99763.35;1763814;80;21411;-57
2022/01/16 00:30:51;;;;;;;2.75;1.60;;;;;;;0.54;66.08;99770.25;1764162;80;20961;-57
2022/01/16 00:33:18;;;;;;;3.62;1.92;;;;;;;0.56;66.44;99778.02;1755603;80;21621;-55
2022/01/16 00:35:45;;;;;;;3.55;1.25;;;;;;;0.60;65.76;99769.83;1754847;80;21562;-56
2022/01/16 00:38:12;;;;;;;3.03;2.10;;;;;;;0.57;65.98;99766.82;1745966;80;20946;-56
2022/01/16 00:40:39;;;;;;;3.30;1.80;;;;;;;0.59;66.29;99753.45;1704370;82;21466;-57
2022/01/16 00:43:06;;;;;;;4.78;1.82;;;;;;;0.58;65.39;99754.30;1736884;82;21505;-55
2022/01/16 00:45:34;;;;;;;2.98;1.40;;;;;;;0.56;65.36;99756.87;1729004;82;21565;-56
2022/01/16 00:48:04;;;;;;;3.22;1.27;;;;;;;0.56;65.67;99765.09;1672793;85;21702;-55
2022/01/16 00:50:33;;;;;;;2.30;1.15;;;;;;;0.56;65.76;99763.35;1707571;82;21625;-56
2022/01/16 00:53:01;;;;;;;2.10;1.25;;;;;;;0.55;64.88;99767.26;1734611;82;21632;-56
2022/01/16 00:55:28;;;;;;;;;;;;;;;0.58;65.16;99765.94;1735390;82;21534;-55
2022/01/16 00:57:54;;;;;;;3.17;1.32;;;;;;;0.54;65.00;99770.69;1736043;82;20521;-55
2022/01/16 01:00:21;;;;;;;3.55;1.22;;;;;;;0.54;64.77;99762.48;1700345;83;22017;-56
2022/01/16 01:02:47;;;;;;;3.02;1.27;;;;;;;0.59;64.27;99735.34;1703404;83;21538;-56
2022/01/16 01:05:14;;;;;;;2.15;1.25;;;;;;;0.53;64.32;99730.17;1733934;82;21456;-57
2022/01/16 01:07:41;;;;;;;2.30;1.30;;;;;;;0.54;63.39;99750.00;1737734;82;21495;-55
2022/01/16 01:10:09;;;;;;;1.92;0.85;;;;;;;0.54;64.18;99775.87;1672273;83;21552;-56
2022/01/16 01:12:54;;;;;;;3.25;1.07;;;;;;;0.54;64.19;99782.34;1667944;85;21807;-55
2022/01/16 01:15:25;;;;;;;1.77;0.93;;;;;;;0.55;64.44;99783.64;1670113;84;21608;-55
2022/01/16 01:17:52;;;;;;;1.32;0.72;;;;;;;0.52;64.18;99789.23;1668040;84;21495;-56
2022/01/16 01:20:21;;;;;;;1.45;1.02;;;;;;;0.53;64.54;99773.72;1738156;82;21494;-55
2022/01/16 01:22:50;;;;;;;2.15;1.05;;;;;;;0.51;64.53;99768.98;1729744;82;21553;-55
2022/01/16 01:25:18;;;;;;;2.05;1.20;;;;;;;0.51;64.23;99796.15;1736708;82;21816;-55
2022/01/16 01:27:46;;;;;;;2.85;1.25;;;;;;;0.53;64.24;99807.80;1736449;82;21049;-56
2022/01/16 01:30:15;;;;;;;;;;;;;;;0.54;64.68;99800.45;1738611;81;20988;-55
2022/01/16 01:32:43;;;;;;;4.53;1.30;;;;;;;0.52;64.59;99822.88;1736233;81;20439;-55
2022/01/16 01:35:12;;;;;;;1.92;0.68;;;;;;;0.50;64.59;99811.66;1738767;82;21541;-55
2022/01/16 01:37:39;;;;;;;3.00;1.25;;;;;;;0.48;64.60;99831.06;1703319;82;21859;-55
2022/01/16 01:40:10;;;;;;;2.40;0.90;;;;;;;0.51;63.94;99856.95;1688089;84;21657;-56
2022/01/16 01:43:04;;;;;;;1.32;0.85;;;;;;;0.50;64.13;99791.81;1742478;80;21554;-56
2022/01/16 01:51:23;;;;;;;2.85;1.17;;;;;;;0.48;64.51;99687.91;1745267;80;21431;-56
2022/01/16 01:53:55;;;;;;;1.75;0.95;;;;;;;0.45;64.74;99671.09;1748186;81;23005;-56
2022/01/16 01:56:22;;;;;;;1.62;1.00;;;;;;;0.43;64.83;99685.31;1742638;80;21551;-55
2022/01/16 01:58:51;;;;;;;1.72;0.95;;;;;;;0.43;64.88;99697.39;1744286;81;21433;-55
2022/01/16 02:01:17;;;;;;;;;;;;;;;0.44;64.89;99745.26;1712483;82;21542;-55
2022/01/16 02:03:45;;;;;;;1.80;0.85;;;;;;;0.42;64.37;99755.19;1741779;80;21861;-55
2022/01/16 02:06:26;;;;;;;1.98;0.90;;;;;;;0.41;64.82;99762.50;1743104;81;21573;-56
2022/01/16 02:08:56;;;;;;;2.22;1.10;;;;;;;0.39;65.17;99767.67;1740820;81;21588;-56
2022/01/16 02:11:28;;;;;;;2.00;0.93;;;;;;;0.39;65.21;99772.41;1743643;80;21451;-56
2022/01/16 02:14:03;;;;;;;2.12;1.15;;;;;;;0.42;64.99;99791.41;1738730;81;21518;-55
2022/01/16 02:27:58;;;;;;;2.35;1.15;;;;;;;0.39;65.25;99796.98;1748523;80;21642;-56
2022/01/16 02:35:39;;;;;;;2.08;1.17;;;;;;;0.36;65.31;99789.67;1744732;81;21530;-56
2022/01/16 02:38:17;;;;;;;4.00;1.30;;;;;;;0.37;64.96;99794.82;1687983;83;21143;-56
2022/01/16 02:41:03;;;;;;;3.22;1.32;;;;;;;0.38;65.23;99799.15;1688231;84;21694;-56
2022/01/16 02:43:30;;;;;;;3.20;1.37;;;;;;;0.36;65.05;99816.39;1689855;82;21717;-54
2022/01/16 02:46:08;;;;;;;2.08;0.93;;;;;;;0.37;65.31;99801.29;1690749;83;21491;-56
2022/01/16 02:48:20;;;;;;;2.87;1.10;;;;;;;0.38;64.36;99822.87;1686672;82;21517;-56
2022/01/16 02:50:46;;;;;;;2.30;1.07;;;;;;;0.37;65.01;99831.03;1691657;83;21667;-56
2022/01/16 02:53:13;;;;;;;1.62;1.30;;;;;;;0.38;65.40;99824.16;1691657;82;21541;-56
2022/01/16 02:55:43;;;;;;;2.85;1.07;;;;;;;0.37;65.19;99826.30;1691758;83;21801;-56
2022/01/16 02:58:09;;;;;;;1.50;1.00;;;;;;;0.34;65.49;99823.30;1691729;83;21087;-55
2022/01/16 03:00:36;;;;;;;2.00;1.30;;;;;;;0.35;65.96;99830.17;1692312;83;21559;-55
2022/01/16 03:03:03;;;;;;;2.12;1.50;;;;;;;0.36;65.92;99830.63;1691667;84;22237;-55
2022/01/16 03:05:31;;;;;;;2.20;1.47;;;;;;;0.37;66.39;99834.92;1692235;83;21536;-55
2022/01/16 03:07:58;;;;;;;1.65;0.98;;;;;;;0.37;66.53;99830.19;1691894;82;21777;-55
2022/01/16 03:10:56;;;;;;;4.58;1.25;;;;;;;0.34;66.74;99836.23;1692043;83;21532;-55
2022/01/16 03:13:07;;;;;;;1.45;1.05;;;;;;;0.33;66.82;99843.98;1683832;84;20965;-56
2022/01/16 03:15:38;;;;;;;2.90;1.10;;;;;;;0.33;66.93;99850.00;1681769;84;21569;-56
2022/01/16 03:23:20;;;;;;;2.85;1.57;;;;;;;0.36;67.20;99854.34;1687852;83;21642;-55
2022/01/16 03:25:48;;;;;;;2.75;1.30;;;;;;;0.36;67.39;99857.78;1688519;83;21710;-55
2022/01/16 03:28:15;;;;;;;3.00;1.40;;;;;;;0.35;67.59;99846.98;1688829;83;21571;-55
2022/01/16 03:30:42;;;;;;;2.17;1.33;;;;;;;0.36;67.54;99845.29;1691099;83;21497;-55
2022/01/16 03:33:09;;;;;;;1.50;1.40;;;;;;;0.35;67.86;99847.43;1688061;82;21860;-55
2022/01/16 03:35:36;;;;;;;3.90;1.55;;;;;;;0.36;67.81;99853.05;1689962;83;21564;-55
2022/01/16 03:38:03;;;;;;;2.92;1.40;;;;;;;0.33;68.03;99855.62;1689928;83;21549;-55
2022/01/16 03:40:31;;;;;;;3.17;1.67;;;;;;;0.35;67.78;99859.06;1690539;84;21524;-55
2022/01/16 03:43:04;;;;;;;1.77;1.22;;;;;;;0.35;68.18;99862.51;1691849;84;21482;-55
2022/01/16 03:45:27;;;;;;;2.95;1.17;;;;;;;0.32;68.37;99855.17;1687096;83;22114;-55
2022/01/16 03:47:55;;;;;;;2.13;1.33;;;;;;;0.30;67.54;99866.83;1689213;83;21549;-56
2022/01/16 03:50:21;;;;;;;;;;;;;;;0.28;68.07;99859.47;1691142;84;21032;-56
2022/01/16 03:52:48;;;;;;;2.25;1.20;;;;;;;0.30;67.79;99856.48;1690475;84;20500;-56
2022/01/16 03:55:15;;;;;;;2.80;1.30;;;;;;;0.26;67.89;99860.34;1689576;83;21549;-56
2022/01/16 03:57:41;;;;;;;1.87;1.17;;;;;;;0.28;67.83;99862.05;1691180;84;22169;-55
2022/01/16 04:00:10;;;;;;;1.98;1.17;;;;;;;0.27;67.78;99860.34;1689745;84;21442;-56
2022/01/16 04:02:36;;;;;;;2.62;1.07;;;;;;;0.27;67.69;99868.11;1687586;83;21638;-55
2022/01/16 04:05:03;;;;;;;3.37;1.20;;;;;;;0.27;67.85;99861.64;1690835;83;21446;-56
2022/01/16 04:07:35;;;;;;;1.90;1.22;;;;;;;0.28;67.55;99867.23;1690274;84;21619;-56
2022/01/16 04:10:00;;;;;;;2.15;1.35;;;;;;;0.30;67.54;99872.00;1688880;84;21939;-56
2022/01/16 04:12:26;;;;;;;3.98;1.32;;;;;;;0.28;67.65;99862.05;1691204;83;21625;-55
2022/01/16 04:17:23;;;;;;;3.40;1.57;;;;;;;0.29;67.75;99851.30;1690965;83;21458;-55
2022/01/16 04:19:50;;;;;;;3.02;1.07;;;;;;;0.33;67.38;99853.03;1682903;84;21414;-55
2022/01/16 04:22:18;;;;;;;1.65;1.10;;;;;;;0.32;66.92;99854.77;1689105;83;22281;-55
2022/01/16 04:24:44;;;;;;;1.17;0.90;;;;;;;0.26;66.65;99857.31;1689923;84;21473;-56
2022/01/16 04:27:11;;;;;;;2.55;1.10;;;;;;;0.24;66.83;99854.30;1691366;83;21598;-56
2022/01/16 04:29:39;;;;;;;1.50;0.98;;;;;;;0.25;67.20;99860.77;1691365;83;21513;-55
2022/01/16 04:32:07;;;;;;;2.40;1.05;;;;;;;0.26;67.49;99861.63;1689391;82;21461;-55
2022/01/16 04:34:35;;;;;;;2.95;1.12;;;;;;;0.25;67.37;99863.80;1690856;82;21853;-55
2022/01/16 04:37:02;;;;;;;3.33;1.00;;;;;;;0.24;67.52;99860.77;1690663;83;21442;-55
2022/01/16 04:39:34;;;;;;;2.80;1.07;;;;;;;0.23;67.36;99858.62;1688607;83;21561;-55
2022/01/16 04:44:46;;;;;;;1.80;1.10;;;;;;;0.25;67.41;99870.27;1687933;84;21438;-55
2022/01/16 04:47:13;;;;;;;2.22;0.85;;;;;;;0.24;67.10;99877.14;1688814;84;21742;-55
2022/01/16 04:49:39;;;;;;;3.58;1.50;;;;;;;0.23;67.29;99878.42;1688384;83;21438;-55
2022/01/16 04:52:07;;;;;;;2.00;1.27;;;;;;;0.23;67.63;99883.19;1688764;83;20989;-54
2022/01/16 04:54:33;;;;;;;3.62;1.57;;;;;;;0.26;67.54;99882.32;1685506;84;21630;-54
2022/01/16 04:57:01;;;;;;;3.33;1.40;;;;;;;0.24;67.72;99893.09;1688382;83;21548;-55
2022/01/16 04:59:28;;;;;;;3.40;1.77;;;;;;;0.23;67.60;99896.12;1688169;83;24356;-54
2022/01/16 05:01:55;;;;;;;3.25;2.08;;;;;;;0.21;67.57;99893.95;1672095;83;21068;-55
2022/01/16 05:04:21;;;;;;;2.12;1.40;;;;;;;0.21;67.12;99899.53;1688486;84;21495;-54
2022/01/16 05:06:48;;;;;;;4.08;1.15;;;;;;;0.22;67.29;99896.96;1688196;83;21492;-55
2022/01/16 05:09:15;;;;;;;2.02;1.40;;;;;;;0.20;67.22;99894.80;1688068;84;21071;-55
2022/01/16 05:11:42;;;;;;;3.83;1.60;;;;;;;0.16;67.27;99902.98;1688721;83;21876;-55
2022/01/16 05:16:53;;;;;;;2.98;1.30;;;;;;;0.15;66.86;99906.84;1688469;84;21473;-55
2022/01/16 05:19:20;;;;;;;1.95;1.30;;;;;;;0.15;66.57;99893.91;1671638;85;21480;-55
2022/01/16 05:21:47;;;;;;;5.00;1.45;;;;;;;0.13;66.23;99907.27;1689016;83;20989;-54
2022/01/16 05:24:14;;;;;;;2.42;1.15;;;;;;;0.13;66.33;99908.16;1688795;84;22216;-54
2022/01/16 05:26:43;;;;;;;3.72;1.50;;;;;;;0.10;66.06;99904.69;1688567;83;21402;-55
2022/01/16 05:29:11;;;;;;;3.12;1.37;;;;;;;0.12;66.26;99909.44;1673657;85;21498;-55
2022/01/16 05:31:44;;;;;;;2.80;1.70;;;;;;;0.09;66.26;99907.69;1682496;84;21531;-54
2022/01/16 05:34:07;;;;;;;2.67;1.50;;;;;;;0.12;66.18;99901.68;1687847;84;21401;-55
2022/01/16 05:36:33;;;;;;;2.42;1.20;;;;;;;0.12;65.95;99910.73;1673209;84;22189;-55
2022/01/16 05:39:00;;;;;;;3.08;1.20;;;;;;;0.12;64.10;99904.27;1681864;83;20946;-55
2022/01/16 05:41:26;;;;;;;2.30;1.20;;;;;;;0.11;63.56;99916.31;1681034;84;21430;-55
2022/01/16 05:43:53;;;;;;;1.52;1.35;;;;;;;0.11;62.70;99918.04;1681147;84;21526;-55
2022/01/16 05:46:20;;;;;;;5.58;1.87;;;;;;;0.13;62.86;99927.95;1681234;83;21513;-55
2022/01/16 05:48:47;;;;;;;3.80;1.67;;;;;;;0.12;62.66;99919.34;1681578;83;21772;-55
2022/01/16 05:51:14;;;;;;;2.45;1.45;;;;;;;0.13;62.97;99916.32;1678058;84;21033;-56
2022/01/16 05:53:40;;;;;;;2.25;1.50;;;;;;;0.11;62.92;99915.45;1680874;84;21520;-55
2022/01/16 05:56:07;;;;;;;5.67;1.32;;;;;;;0.11;63.25;99924.06;1680282;84;21588;-55
2022/01/16 05:58:34;;;;;;;2.13;1.10;;;;;;;0.12;63.48;99928.83;1681249;84;21526;-55
2022/01/16 06:01:01;;;;;;;1.52;0.93;;;;;;;0.14;63.69;99933.14;1681282;84;21560;-55
2022/01/16 06:03:27;;;;;;;2.02;1.30;;;;;;;0.13;63.54;99926.66;1679181;84;21687;-55
2022/01/16 06:05:54;;;;;;;4.33;1.55;;;;;;;0.13;63.78;99931.83;1681416;84;21530;-55
2022/01/16 06:08:21;;;;;;;1.80;1.35;;;;;;;0.14;63.31;99931.84;1681288;83;21880;-55
2022/01/16 06:10:47;;;;;;;3.92;1.57;;;;;;;0.14;63.25;99929.70;1681208;84;21485;-55
2022/01/16 06:13:14;;;;;;;5.43;1.77;;;;;;;0.13;63.53;99935.31;1681110;84;21746;-55
2022/01/16 06:15:41;;;;;;;3.92;1.35;;;;;;;0.11;63.43;99934.41;1681173;84;21501;-55
2022/01/16 06:18:08;;;;;;;4.33;1.85;;;;;;;0.12;63.24;99936.16;1681097;84;21028;-55
2022/01/16 06:20:35;;;;;;;2.35;1.07;;;;;;;0.13;63.67;99945.66;1681158;83;21520;-55
2022/01/16 06:23:01;;;;;;;2.87;1.30;;;;;;;0.13;63.79;99945.66;1680896;84;21497;-55
2022/01/16 06:25:28;;;;;;;3.90;1.30;;;;;;;0.15;63.22;99946.92;1681118;84;22003;-55
2022/01/16 06:27:55;;;;;;;4.10;1.80;;;;;;;0.14;63.77;99951.68;1679888;83;21469;-55
2022/01/16 06:30:21;;;;;;;3.05;1.35;;;;;;;0.13;64.13;99957.69;1680693;84;21017;-55
2022/01/16 06:32:48;;;;;;;3.25;1.20;;;;;;;0.10;64.26;99963.73;1681766;84;21430;-55
2022/01/16 06:35:15;;;;;;;3.02;1.57;;;;;;;0.10;64.22;99957.70;1681171;84;21591;-55
2022/01/16 06:37:43;;;;;;;2.55;1.80;;;;;;;0.11;64.38;99956.83;1683038;83;21802;-55
2022/01/16 06:40:12;;;;;;;;;;;;;;;0.09;64.50;99954.66;1685832;83;21572;-56
2022/01/16 06:42:39;;;;;;;1.40;1.20;;;;;;;0.10;64.50;99955.12;1690687;83;20452;-55
2022/01/16 06:45:07;;;;;;;3.02;1.30;;;;;;;0.08;64.89;99953.81;1691383;83;21552;-55
2022/01/16 06:47:34;;;;;;;3.00;1.70;;;;;;;0.11;65.01;99955.53;1690983;83;21608;-55
2022/01/16 06:50:01;;;;;;;2.08;1.72;;;;;;;0.14;64.98;99955.56;1686066;84;21789;-55
2022/01/16 06:52:28;;;;;;;6.07;2.10;;;;;;;0.14;64.89;99949.95;1628346;87;21652;-55
2022/01/16 06:54:55;;;;;;;8.13;1.75;;;;;;;0.23;63.15;99962.06;1658165;84;21557;-55
2022/01/16 06:57:21;;;;;;;2.12;1.35;;;;;;;0.20;63.83;99947.82;1686817;84;21496;-55
2022/01/16 06:59:48;;;;;;;4.62;1.25;;;;;;;0.22;63.15;99956.45;1686702;83;21497;-55
2022/01/16 07:02:16;;;;;;;2.10;1.20;;;;;;;0.21;62.83;99966.77;1626134;87;21431;-56
2022/01/16 07:04:45;;;;;;;3.60;1.40;;;;;;;0.21;63.07;99959.91;1627204;87;21573;-55
2022/01/16 07:07:12;;;;;;;2.22;1.10;;;;;;;0.22;62.93;99974.98;1627323;87;21561;-55
2022/01/16 07:09:40;;;;;;;2.43;1.47;;;;;;;0.22;63.04;99973.25;1629604;86;21522;-54
2022/01/16 07:12:09;;;;;;;1.40;0.98;;;;;;;0.22;63.07;99978.42;1657208;85;21486;-55
2022/01/16 07:14:36;;;;;;;4.35;1.50;;;;;;;0.27;63.22;99978.47;1630826;86;21748;-55
2022/01/16 07:17:03;;;;;;;5.47;1.82;;;;;;;0.28;63.31;99982.33;1686648;84;21572;-55
2022/01/16 07:19:31;;;;;;;3.95;1.85;;;;;;;0.33;63.56;99984.52;1686633;83;21560;-55
2022/01/16 07:21:57;;;;;;;4.95;1.47;;;;;;;0.37;63.14;99975.05;1629521;86;20962;-55
2022/01/16 07:24:24;;;;;;;3.42;1.55;;;;;;;0.38;63.06;99985.41;1627696;86;21649;-55
2022/01/16 07:26:50;;;;;;;4.78;1.60;;;;;;;0.39;63.10;99981.94;1686570;83;21450;-55
2022/01/16 07:29:17;;;;;;;3.05;1.50;;;;;;;0.43;63.07;99983.27;1683850;84;20933;-55
2022/01/16 07:31:44;;;;;;;2.40;1.05;;;;;;;0.45;63.25;99990.16;1686393;83;21547;-54
2022/01/16 07:34:10;;;;;;;5.42;1.52;;;;;;;0.48;63.30;99997.94;1686805;83;21419;-55
2022/01/16 07:36:38;;;;;;;3.80;1.62;;;;;;;0.47;61.97;99994.94;1686045;84;21513;-55
2022/01/16 07:39:05;;;;;;;2.70;1.80;;;;;;;0.47;62.55;99996.23;1678572;84;22123;-55
2022/01/16 07:41:32;;;;;;;4.50;2.23;;;;;;;0.47;62.85;99998.81;1686339;83;21587;-55
2022/01/16 07:43:58;;;;;;;3.83;1.70;;;;;;;0.50;62.68;99998.81;1687327;84;21544;-55
2022/01/16 07:46:25;;;;;;;3.02;1.70;;;;;;;0.50;63.02;100003.98;1673361;84;21035;-55
2022/01/16 07:48:51;;;;;;;4.10;1.92;;;;;;;0.52;62.90;99992.35;1689012;83;21052;-55
2022/01/16 07:51:18;;;;;;;2.37;1.57;;;;;;;0.52;62.49;99994.50;1688687;83;21542;-55
2022/01/16 07:53:45;;;;;;;4.05;1.17;;;;;;;0.54;62.54;99987.61;1691672;82;21580;-56
2022/01/16 07:56:11;;;;;;;1.65;1.07;;;;;;;0.55;61.71;99987.20;1680733;83;21075;-55
2022/01/16 07:58:38;;;;;;;3.17;1.40;;;;;;;0.57;61.48;99981.16;1688522;83;21522;-55
2022/01/16 08:01:05;;;;;;;2.22;1.30;;;;;;;0.56;60.91;99987.18;1688980;83;21557;-55
2022/01/16 08:03:31;;;;;;;3.15;1.20;;;;;;;0.56;60.39;99981.15;1673269;84;21847;-55
2022/01/16 08:05:58;;;;;;;6.00;2.15;;;;;;;0.56;60.54;99996.67;1681891;83;21009;-55
2022/01/16 08:08:25;;;;;;;2.58;1.55;;;;;;;0.58;60.49;99997.13;1688341;83;21530;-55
2022/01/16 08:10:52;;;;;;;2.55;1.07;;;;;;;0.58;60.73;100001.02;1685779;84;21496;-53
2022/01/16 08:13:19;;;;;;;3.53;1.50;;;;;;;0.63;60.63;100002.31;1673734;84;21514;-55
2022/01/16 08:15:45;;;;;;;2.12;1.22;;;;;;;0.66;60.45;100005.33;1688305;84;21595;-54
2022/01/16 08:18:13;;;;;;;2.47;1.05;;;;;;;0.72;59.56;100001.48;1674039;84;21485;-56
2022/01/16 08:20:40;;;;;;;1.52;0.98;;;;;;;0.70;59.47;100002.77;1685705;83;21489;-55
2022/01/16 08:23:07;;;;;;;2.55;1.37;;;;;;;0.72;58.99;99996.31;1687880;83;21517;-56
2022/01/16 08:25:33;;;;;;;1.60;1.17;;;;;;;0.72;59.04;99998.46;1687716;83;21546;-55
2022/01/16 08:28:00;;;;;;;1.98;1.40;;;;;;;0.74;58.65;99994.15;1674298;83;22031;-55
2022/01/16 08:30:27;;;;;;;2.80;1.20;;;;;;;0.72;58.40;99991.98;1692647;82;21480;-54
2022/01/16 08:32:53;;;;;;;2.10;1.02;;;;;;;0.75;58.31;99995.00;1682121;84;21449;-54
2022/01/16 08:35:20;;;;;;;1.82;1.22;;;;;;;0.76;58.24;99999.33;1685666;84;21539;-55
2022/01/16 08:37:47;;;;;;;3.77;1.30;;;;;;;0.74;58.37;100000.63;1673887;85;21715;-55
2022/01/16 08:40:14;;;;;;;1.50;1.02;;;;;;;0.75;58.54;100008.83;1696675;84;21799;-55
2022/01/16 08:42:42;;;;;;;;;;;;;;;0.80;58.05;100006.69;1691766;84;21570;-55
2022/01/16 08:45:09;;;;;;;2.27;1.12;;;;;;;0.80;58.24;99998.48;1697369;84;20410;-55
2022/01/16 08:47:37;;;;;;;3.27;1.20;;;;;;;0.78;58.21;100002.34;1697092;83;21499;-55
2022/01/16 08:50:07;;;;;;;3.47;1.17;;;;;;;0.81;58.73;100005.80;1697499;84;21499;-55
2022/01/16 08:53:52;;;;;;;3.72;1.32;;;;;;;0.86;58.87;100002.37;1787674;78;22574;-56
2022/01/16 08:56:20;;;;;;;2.35;1.57;;;;;;;0.83;59.18;100007.97;1765063;80;21541;-56
2022/01/16 08:58:46;;;;;;;4.65;1.72;;;;;;;0.85;59.08;100007.53;1765717;80;21544;-56
2022/01/16 09:01:13;;;;;;;3.65;1.60;;;;;;;0.82;59.06;100003.66;1773127;80;21604;-56
2022/01/16 09:03:40;;;;;;;3.90;1.90;;;;;;;0.81;59.48;99994.16;1767797;80;21443;-55
2022/01/16 09:06:07;;;;;;;4.90;1.98;;;;;;;0.83;59.34;99989.44;1763670;80;21535;-56
2022/01/16 09:08:34;;;;;;;3.40;1.87;;;;;;;0.85;59.11;99987.71;1758981;80;21937;-58
2022/01/16 09:11:01;;;;;;;3.12;1.65;;;;;;;0.80;58.89;99994.59;1755380;80;21802;-57
2022/01/16 09:13:29;;;;;;;1.70;1.30;;;;;;;0.79;59.55;99976.02;1755380;80;21562;-58
2022/01/16 09:15:57;;;;;;;3.58;1.55;;;;;;;0.79;59.40;99978.61;1759863;80;21482;-57
2022/01/16 09:18:23;;;;;;;;;;;;;;;0.77;59.60;99973.46;1770431;80;21549;-58
2022/01/16 09:20:50;;;;;;;2.98;1.60;;;;;;;0.81;59.70;99966.57;1747882;79;20506;-57
2022/01/16 09:23:16;;;;;;;3.37;1.22;;;;;;;0.81;58.75;99957.51;1704680;83;21469;-58
2022/01/16 09:25:43;;;;;;;3.33;1.40;;;;;;;0.81;58.86;99965.27;1732799;81;21135;-58
2022/01/16 09:28:10;;;;;;;1.87;1.10;;;;;;;0.78;57.45;99964.81;1720277;82;21474;-58
2022/01/16 09:30:36;;;;;;;1.87;1.12;;;;;;;0.76;58.31;99962.66;1719923;82;21477;-57
2022/01/16 09:33:03;;;;;;;6.78;1.60;;;;;;;0.83;57.85;99954.89;1721784;81;21542;-57
2022/01/16 09:35:33;;;;;;;2.95;1.30;;;;;;;0.76;57.80;99961.36;1724640;82;21793;-59
2022/01/16 09:37:58;;;;;;;2.00;1.02;;;;;;;0.79;58.50;99951.44;1730010;82;21432;-58
2022/01/16 09:40:25;;;;;;;3.87;1.42;;;;;;;0.86;58.24;99949.73;1723701;82;21589;-58
2022/01/16 09:42:52;;;;;;;3.37;1.20;;;;;;;0.91;58.48;99950.61;1714974;81;21051;-60
2022/01/16 09:45:19;;;;;;;3.17;0.98;;;;;;;0.94;57.23;99950.59;1724785;82;21549;-61
2022/01/16 09:47:47;;;;;;;4.30;1.32;;;;;;;0.90;57.24;99947.14;1727165;82;21604;-58
2022/01/16 09:50:20;;;;;;;4.60;0.90;;;;;;;0.86;56.78;99949.73;1717588;82;21539;-58
2022/01/16 09:52:47;;;;;;;2.75;1.30;;;;;;;0.87;57.30;99941.13;1716576;82;22198;-58
2022/01/16 09:55:15;;;;;;;1.70;1.10;;;;;;;0.87;56.32;99948.45;1717274;82;20979;-59
2022/01/16 09:57:42;;;;;;;2.58;0.93;;;;;;;0.83;56.66;99943.25;1708094;82;21425;-57
2022/01/16 10:00:12;;;;;;;3.27;1.30;;;;;;;0.80;56.89;99954.47;1710008;82;22066;-58
2022/01/16 10:02:45;;;;;;;2.00;1.20;;;;;;;0.84;57.30;99959.23;1714222;82;21538;-56
2022/01/16 10:05:31;;;;;;;2.22;1.47;;;;;;;0.87;58.04;99944.56;1713123;82;21495;-56
2022/01/16 10:08:00;;;;;;;2.80;1.25;;;;;;;0.93;56.85;99952.77;1708407;82;21509;-58
2022/01/16 10:10:29;;;;;;;4.35;1.55;;;;;;;0.94;57.12;99943.72;1706806;82;21542;-58
2022/01/16 10:13:04;;;;;;;2.77;1.20;;;;;;;0.91;57.17;99941.11;1703071;82;21603;-58
2022/01/16 10:15:27;;;;;;;1.82;1.00;;;;;;;0.96;57.71;99943.28;1709259;82;21555;-58
2022/01/16 10:17:56;;;;;;;4.20;1.35;;;;;;;1.01;56.16;99942.42;1709982;82;21566;-57
2022/01/16 10:20:24;;;;;;;2.27;1.47;;;;;;;0.92;57.01;99948.03;1712140;82;21724;-58
2022/01/16 10:23:00;;;;;;;2.87;1.27;;;;;;;0.94;56.40;99945.42;1721536;82;21507;-58
2022/01/16 10:25:41;;;;;;;2.52;1.42;;;;;;;0.89;56.84;99941.55;1713362;82;21808;-58
2022/01/16 10:28:23;;;;;;;2.72;1.40;;;;;;;0.90;56.16;99938.52;1705705;82;21557;-57
2022/01/16 10:30:55;;;;;;;3.67;1.62;;;;;;;0.83;56.40;99942.84;1712936;82;21507;-56
2022/01/16 10:33:26;;;;;;;2.87;1.30;;;;;;;0.86;57.00;99938.08;1715242;82;21467;-56
2022/01/16 10:35:55;;;;;;;2.95;1.62;;;;;;;0.89;57.45;99944.13;1715460;82;21614;-58
2022/01/16 10:38:26;;;;;;;1.47;1.00;;;;;;;0.94;57.40;99941.13;1710891;82;21808;-56
2022/01/16 10:40:54;;;;;;;1.70;1.10;;;;;;;1.02;57.27;99935.06;1715034;82;21500;-57
2022/01/16 10:43:40;;;;;;;2.20;1.40;;;;;;;0.90;55.96;99941.11;1710838;82;21566;-57
2022/01/16 10:46:07;;;;;;;5.17;1.40;;;;;;;0.92;57.07;99936.79;1695712;82;21608;-57
2022/01/16 10:48:34;;;;;;;;;;;;;;;0.90;57.55;99941.11;1701933;83;21072;-58
2022/01/16 10:51:03;;;;;;;4.03;1.70;;;;;;;0.96;57.30;99940.70;1704479;83;20601;-57
2022/01/16 10:53:32;;;;;;;4.08;1.70;;;;;;;0.90;57.10;99933.34;1690167;83;21088;-60
2022/01/16 10:56:04;;;;;;;2.30;1.52;;;;;;;0.91;57.01;99936.38;1699023;82;21648;-60
2022/01/16 10:58:38;;;;;;;6.03;1.52;;;;;;;0.92;56.60;99943.27;1681600;83;21515;-57
2022/01/16 11:01:10;;;;;;;3.83;1.27;;;;;;;0.93;55.88;99922.56;1689636;83;21522;-58
2022/01/16 11:03:45;;;;;;;6.22;1.67;;;;;;;0.88;56.81;99920.83;1690532;82;21513;-58
2022/01/16 11:06:16;;;;;;;2.42;1.30;;;;;;;0.94;56.39;99924.70;1684897;83;21572;-58
2022/01/16 11:08:53;;;;;;;3.45;1.40;;;;;;;0.96;56.07;99929.05;1697853;82;21609;-57
2022/01/16 11:11:21;;;;;;;2.77;1.62;;;;;;;0.99;56.37;99920.84;1730208;80;21565;-58
2022/01/16 11:13:48;;;;;;;4.20;1.37;;;;;;;0.96;56.18;99922.98;1709514;82;21456;-57
2022/01/16 11:16:16;;;;;;;2.12;1.60;;;;;;;0.99;56.76;99919.55;1735875;82;21464;-57
2022/01/16 11:18:52;;;;;;;2.30;1.50;;;;;;;1.02;56.54;99926.89;1738264;80;21050;-56
2022/01/16 11:21:34;;;;;;;3.20;1.52;;;;;;;0.98;56.25;99929.05;1741955;80;21651;-57
2022/01/16 11:24:26;;;;;;;4.55;2.50;;;;;;;0.99;56.26;99929.91;1734036;80;21097;-56
2022/01/16 11:26:42;;;;;;;6.42;2.22;;;;;;;1.02;55.95;99924.30;1724612;81;21002;-56
2022/01/16 11:29:08;;;;;;;4.55;1.82;;;;;;;1.05;56.33;99925.58;1693142;82;22148;-58
2022/01/16 11:31:35;;;;;;;3.60;1.67;;;;;;;1.13;55.08;99915.22;1729167;80;21178;-56
2022/01/16 11:34:02;;;;;;;3.52;1.22;;;;;;;1.14;55.35;99912.63;1728460;80;21526;-57
2022/01/16 11:36:29;;;;;;;2.42;1.15;;;;;;;1.26;55.56;99910.90;1728511;80;21554;-58
2022/01/16 11:39:00;;;;;;;5.72;2.87;;;;;;;1.38;55.31;99913.49;1717687;81;21562;-58
2022/01/16 11:41:34;;;;;;;2.33;1.15;;;;;;;1.36;54.68;99909.61;1720097;82;21761;-56
2022/01/16 11:44:05;;;;;;;4.95;1.82;;;;;;;1.20;54.02;99913.06;1708804;82;21615;-57
2022/01/16 11:46:51;;;;;;;3.10;1.60;;;;;;;1.14;54.98;99920.40;1719157;82;21625;-56
2022/01/16 11:49:45;;;;;;;2.12;1.50;;;;;;;1.13;54.54;99910.03;1712200;82;21503;-55
2022/01/16 11:52:12;;;;;;;2.92;1.45;;;;;;;1.04;55.11;99909.63;1674192;82;21558;-57
2022/01/16 11:54:44;;;;;;;5.12;2.00;;;;;;;1.01;55.48;99907.46;1709803;81;21833;-58
2022/01/16 11:57:24;;;;;;;7.33;3.42;;;;;;;1.03;55.55;99905.30;1708875;82;21073;-57
2022/01/16 12:00:11;;;;;;;6.03;2.80;;;;;;;1.06;55.47;99901.42;1709795;82;21065;-57
2022/01/16 12:02:44;;;;;;;5.80;2.33;;;;;;;1.01;55.39;99897.10;1711338;82;21519;-57
2022/01/16 12:05:14;;;;;;;5.45;2.67;;;;;;;0.94;55.42;99907.47;1710235;82;21432;-57
2022/01/16 12:07:45;;;;;;;2.60;1.32;;;;;;;0.94;55.59;99899.70;1684302;82;22101;-58
2022/01/16 12:10:10;;;;;;;2.77;1.85;;;;;;;0.86;55.32;99901.40;1706495;82;21543;-58
2022/01/16 12:12:37;;;;;;;4.70;2.35;;;;;;;0.91;55.76;99897.54;1705975;82;21499;-58
2022/01/16 12:15:08;;;;;;;5.20;2.42;;;;;;;0.93;55.61;99900.55;1706482;82;21554;-57
2022/01/16 12:17:51;;;;;;;3.02;1.52;;;;;;;0.90;55.87;99902.27;1710118;82;20998;-57
2022/01/16 12:20:22;;;;;;;4.10;1.15;;;;;;;0.91;55.84;99897.54;1704614;82;21834;-58
2022/01/16 12:23:08;;;;;;;2.55;1.12;;;;;;;0.88;55.72;99904.00;1705120;82;21346;-58
2022/01/16 12:25:40;;;;;;;3.80;1.17;;;;;;;0.87;54.98;99905.73;1708576;82;21680;-59
2022/01/16 12:28:15;;;;;;;4.33;1.47;;;;;;;0.76;54.58;99905.71;1708226;82;21548;-57
2022/01/16 12:31:02;;;;;;;2.47;1.42;;;;;;;0.70;54.22;99914.77;1706633;82;21050;-57